sensor_id;sensor_type;location;lat;lon;timestamp;pressure;altitude;pressure_sealevel;temperature;humidity
62333;BME280;48624;49.812;8.562;2023-06-10T00:00:42;100230.09;;;19.36;61.03
62333;BME280;48624;49.812;8.562;2023-06-10T00:03:07;100236.78;;;19.23;61.19
62333;BME280;48624;49.812;8.562;2023-06-10T00:05:34;100238.81;;;19.21;62.29
62333;BME280;48624;49.812;8.562;2023-06-10T00:08:00;100230.72;;;19.05;62.53
62333;BME280;48624;49.812;8.562;2023-06-10T00:10:26;100230.06;;;19.03;62.49
62333;BME280;48624;49.812;8.562;2023-06-10T00:12:52;100231.00;;;18.85;63.22
62333;BME280;48624;49.812;8.562;2023-06-10T00:15:17;100228.72;;;19.15;61.41
62333;BME280;48624;49.812;8.562;2023-06-10T00:17:43;100226.41;;;19.37;60.45
62333;BME280;48624;49.812;8.562;2023-06-10T00:20:09;100231.75;;;19.04;61.93
62333;BME280;48624;49.812;8.562;2023-06-10T00:22:37;100237.97;;;19.12;61.50
62333;BME280;48624;49.812;8.562;2023-06-10T00:25:03;100228.22;;;19.28;60.46
62333;BME280;48624;49.812;8.562;2023-06-10T00:27:29;100231.59;;;19.30;60.33
62333;BME280;48624;49.812;8.562;2023-06-10T00:30:00;100240.50;;;19.31;60.08
62333;BME280;48624;49.812;8.562;2023-06-10T00:32:26;100237.31;;;19.27;60.17
62333;BME280;48624;49.812;8.562;2023-06-10T00:34:51;100242.00;;;19.17;61.17
62333;BME280;48624;49.812;8.562;2023-06-10T00:37:16;100237.56;;;18.99;62.04
62333;BME280;48624;49.812;8.562;2023-06-10T00:39:41;100238.97;;;19.03;61.60
62333;BME280;48624;49.812;8.562;2023-06-10T00:42:07;100233.69;;;18.93;62.39
62333;BME280;48624;49.812;8.562;2023-06-10T00:44:33;100240.81;;;18.60;65.25
62333;BME280;48624;49.812;8.562;2023-06-10T00:46:58;100236.56;;;18.49;66.53
62333;BME280;48624;49.812;8.562;2023-06-10T00:49:23;100236.38;;;18.42;66.90
62333;BME280;48624;49.812;8.562;2023-06-10T00:51:50;100232.38;;;18.38;66.01
62333;BME280;48624;49.812;8.562;2023-06-10T00:54:17;100234.53;;;18.34;66.36
62333;BME280;48624;49.812;8.562;2023-06-10T00:56:43;100247.03;;;18.25;67.12
62333;BME280;48624;49.812;8.562;2023-06-10T00:59:08;100244.56;;;18.32;66.26
62333;BME280;48624;49.812;8.562;2023-06-10T01:01:34;100246.78;;;18.10;67.78
62333;BME280;48624;49.812;8.562;2023-06-10T01:03:59;100245.22;;;18.26;66.17
62333;BME280;48624;49.812;8.562;2023-06-10T01:09:25;100245.16;;;18.17;67.43
62333;BME280;48624;49.812;8.562;2023-06-10T01:14:34;100246.00;;;18.18;66.41
62333;BME280;48624;49.812;8.562;2023-06-10T01:17:00;100248.03;;;17.98;67.65
62333;BME280;48624;49.812;8.562;2023-06-10T01:19:26;100247.81;;;17.65;70.18
62333;BME280;48624;49.812;8.562;2023-06-10T01:21:53;100242.28;;;17.66;70.01
62333;BME280;48624;49.812;8.562;2023-06-10T01:24:20;100243.91;;;17.59;70.33
62333;BME280;48624;49.812;8.562;2023-06-10T01:26:48;100240.94;;;17.44;70.96
62333;BME280;48624;49.812;8.562;2023-06-10T01:29:19;100243.63;;;17.26;71.81
62333;BME280;48624;49.812;8.562;2023-06-10T01:31:56;100249.03;;;17.16;72.37
62333;BME280;48624;49.812;8.562;2023-06-10T01:34:26;100247.22;;;17.16;72.32
62333;BME280;48624;49.812;8.562;2023-06-10T01:36:52;100244.31;;;17.10;72.67
62333;BME280;48624;49.812;8.562;2023-06-10T01:39:23;100249.50;;;17.11;72.23
62333;BME280;48624;49.812;8.562;2023-06-10T01:41:49;100250.69;;;16.99;72.73
62333;BME280;48624;49.812;8.562;2023-06-10T01:44:20;100250.31;;;16.94;73.34
62333;BME280;48624;49.812;8.562;2023-06-10T01:46:46;100247.94;;;16.90;73.78
62333;BME280;48624;49.812;8.562;2023-06-10T01:49:11;100256.19;;;16.79;73.96
62333;BME280;48624;49.812;8.562;2023-06-10T01:51:37;100256.75;;;17.01;72.41
62333;BME280;48624;49.812;8.562;2023-06-10T01:54:02;100259.16;;;17.04;71.89
62333;BME280;48624;49.812;8.562;2023-06-10T01:56:27;100249.22;;;17.14;71.37
62333;BME280;48624;49.812;8.562;2023-06-10T01:58:52;100259.09;;;17.32;70.06
62333;BME280;48624;49.812;8.562;2023-06-10T02:01:20;100255.41;;;17.33;70.15
62333;BME280;48624;49.812;8.562;2023-06-10T02:03:46;100262.69;;;17.41;69.33
62333;BME280;48624;49.812;8.562;2023-06-10T02:06:11;100264.53;;;16.94;73.18
62333;BME280;48624;49.812;8.562;2023-06-10T02:08:36;100262.38;;;16.80;74.23
62333;BME280;48624;49.812;8.562;2023-06-10T02:11:01;100267.97;;;16.58;75.67
62333;BME280;48624;49.812;8.562;2023-06-10T02:13:27;100269.31;;;16.34;76.72
62333;BME280;48624;49.812;8.562;2023-06-10T02:15:52;100260.22;;;16.27;77.30
62333;BME280;48624;49.812;8.562;2023-06-10T02:18:19;100272.28;;;16.41;76.26
62333;BME280;48624;49.812;8.562;2023-06-10T02:20:45;100261.53;;;16.13;77.70
62333;BME280;48624;49.812;8.562;2023-06-10T02:23:11;100260.59;;;15.94;78.52
62333;BME280;48624;49.812;8.562;2023-06-10T02:25:36;100262.69;;;16.01;78.72
62333;BME280;48624;49.812;8.562;2023-06-10T02:28:01;100255.53;;;15.91;79.41
62333;BME280;48624;49.812;8.562;2023-06-10T02:30:28;100260.06;;;15.91;79.18
62333;BME280;48624;49.812;8.562;2023-06-10T02:32:53;100260.31;;;15.98;79.35
62333;BME280;48624;49.812;8.562;2023-06-10T02:35:21;100260.94;;;16.19;77.76
62333;BME280;48624;49.812;8.562;2023-06-10T02:37:47;100266.50;;;16.46;75.93
62333;BME280;48624;49.812;8.562;2023-06-10T02:40:13;100265.53;;;16.65;74.27
62333;BME280;48624;49.812;8.562;2023-06-10T02:42:38;100263.50;;;16.49;75.79
62333;BME280;48624;49.812;8.562;2023-06-10T02:45:03;100267.34;;;16.64;74.65
62333;BME280;48624;49.812;8.562;2023-06-10T02:47:29;100268.50;;;16.34;76.95
62333;BME280;48624;49.812;8.562;2023-06-10T02:49:55;100268.25;;;16.27;77.92
62333;BME280;48624;49.812;8.562;2023-06-10T02:52:20;100259.63;;;15.95;79.52
62333;BME280;48624;49.812;8.562;2023-06-10T02:54:45;100272.13;;;15.85;80.21
62333;BME280;48624;49.812;8.562;2023-06-10T02:57:11;100257.78;;;15.86;80.10
62333;BME280;48624;49.812;8.562;2023-06-10T02:59:36;100269.06;;;15.70;81.18
62333;BME280;48624;49.812;8.562;2023-06-10T03:02:01;100271.28;;;15.65;81.33
62333;BME280;48624;49.812;8.562;2023-06-10T03:04:27;100275.91;;;15.73;80.63
62333;BME280;48624;49.812;8.562;2023-06-10T03:06:54;100266.94;;;15.93;78.92
62333;BME280;48624;49.812;8.562;2023-06-10T03:09:19;100268.31;;;15.98;78.33
62333;BME280;48624;49.812;8.562;2023-06-10T03:11:44;100277.03;;;15.80;79.42
62333;BME280;48624;49.812;8.562;2023-06-10T03:14:10;100275.47;;;15.97;78.58
62333;BME280;48624;49.812;8.562;2023-06-10T03:16:35;100277.31;;;15.87;79.35
62333;BME280;48624;49.812;8.562;2023-06-10T03:19:01;100277.31;;;15.97;78.65
62333;BME280;48624;49.812;8.562;2023-06-10T03:21:26;100284.34;;;15.78;79.26
62333;BME280;48624;49.812;8.562;2023-06-10T03:23:52;100274.50;;;15.98;78.04
62333;BME280;48624;49.812;8.562;2023-06-10T03:26:17;100280.69;;;15.89;78.54
62333;BME280;48624;49.812;8.562;2023-06-10T03:28:42;100282.81;;;15.85;78.76
62333;BME280;48624;49.812;8.562;2023-06-10T03:31:07;100289.97;;;15.85;79.24
62333;BME280;48624;49.812;8.562;2023-06-10T03:33:33;100287.03;;;15.78;79.67
62333;BME280;48624;49.812;8.562;2023-06-10T03:35:59;100285.50;;;15.65;80.66
62333;BME280;48624;49.812;8.562;2023-06-10T03:38:24;100285.78;;;15.43;82.00
62333;BME280;48624;49.812;8.562;2023-06-10T03:40:49;100287.75;;;15.70;80.16
62333;BME280;48624;49.812;8.562;2023-06-10T03:43:15;100297.16;;;15.64;80.77
62333;BME280;48624;49.812;8.562;2023-06-10T03:45:40;100292.78;;;15.63;80.94
62333;BME280;48624;49.812;8.562;2023-06-10T03:48:06;100296.72;;;15.69;80.86
62333;BME280;48624;49.812;8.562;2023-06-10T03:50:33;100296.47;;;15.72;80.60
62333;BME280;48624;49.812;8.562;2023-06-10T03:52:59;100296.03;;;15.67;80.89
62333;BME280;48624;49.812;8.562;2023-06-10T03:55:24;100294.91;;;15.70;80.77
62333;BME280;48624;49.812;8.562;2023-06-10T03:57:49;100297.44;;;15.61;81.51
62333;BME280;48624;49.812;8.562;2023-06-10T04:00:16;100304.59;;;15.71;81.21
62333;BME280;48624;49.812;8.562;2023-06-10T04:02:42;100303.78;;;15.70;81.31
62333;BME280;48624;49.812;8.562;2023-06-10T04:05:17;100304.59;;;15.71;81.35
62333;BME280;48624;49.812;8.562;2023-06-10T04:07:43;100298.69;;;15.77;81.12
62333;BME280;48624;49.812;8.562;2023-06-10T04:10:09;100303.19;;;15.76;81.61
62333;BME280;48624;49.812;8.562;2023-06-10T04:12:35;100308.25;;;15.89;80.93
62333;BME280;48624;49.812;8.562;2023-06-10T04:15:01;100302.50;;;15.84;81.18
62333;BME280;48624;49.812;8.562;2023-06-10T04:17:27;100305.88;;;15.96;80.63
62333;BME280;48624;49.812;8.562;2023-06-10T04:19:52;100309.09;;;16.00;80.70
62333;BME280;48624;49.812;8.562;2023-06-10T04:22:21;100320.03;;;16.06;80.51
62333;BME280;48624;49.812;8.562;2023-06-10T04:24:46;100319.72;;;16.29;79.63
62333;BME280;48624;49.812;8.562;2023-06-10T04:27:12;100322.78;;;16.44;78.94
62333;BME280;48624;49.812;8.562;2023-06-10T04:29:37;100312.44;;;16.59;78.45
62333;BME280;48624;49.812;8.562;2023-06-10T04:32:03;100322.50;;;16.75;77.45
62333;BME280;48624;49.812;8.562;2023-06-10T04:34:28;100323.09;;;16.69;77.77
62333;BME280;48624;49.812;8.562;2023-06-10T04:36:54;100321.69;;;16.75;77.71
62333;BME280;48624;49.812;8.562;2023-06-10T04:39:19;100320.81;;;16.74;77.96
62333;BME280;48624;49.812;8.562;2023-06-10T04:41:45;100324.22;;;17.04;76.29
62333;BME280;48624;49.812;8.562;2023-06-10T04:44:10;100318.28;;;17.11;75.77
62333;BME280;48624;49.812;8.562;2023-06-10T04:46:36;100320.41;;;17.07;76.90
62333;BME280;48624;49.812;8.562;2023-06-10T04:49:02;100323.63;;;17.11;77.14
62333;BME280;48624;49.812;8.562;2023-06-10T04:51:27;100330.34;;;17.15;77.18
62333;BME280;48624;49.812;8.562;2023-06-10T04:53:53;100330.75;;;17.20;77.34
62333;BME280;48624;49.812;8.562;2023-06-10T04:56:18;100325.72;;;17.17;77.73
62333;BME280;48624;49.812;8.562;2023-06-10T04:58:44;100320.38;;;17.35;76.68
62333;BME280;48624;49.812;8.562;2023-06-10T05:01:09;100321.59;;;17.41;76.34
62333;BME280;48624;49.812;8.562;2023-06-10T05:03:34;100324.13;;;17.42;76.49
62333;BME280;48624;49.812;8.562;2023-06-10T05:06:00;100325.63;;;17.45;76.74
62333;BME280;48624;49.812;8.562;2023-06-10T05:08:25;100325.03;;;17.51;76.25
62333;BME280;48624;49.812;8.562;2023-06-10T05:10:50;100329.25;;;17.54;76.73
62333;BME280;48624;49.812;8.562;2023-06-10T05:13:16;100335.69;;;17.61;76.46
62333;BME280;48624;49.812;8.562;2023-06-10T05:15:42;100330.06;;;17.54;76.89
62333;BME280;48624;49.812;8.562;2023-06-10T05:18:10;100329.88;;;17.66;76.58
62333;BME280;48624;49.812;8.562;2023-06-10T05:20:35;100324.78;;;17.81;76.71
62333;BME280;48624;49.812;8.562;2023-06-10T05:23:00;100331.38;;;17.68;77.63
62333;BME280;48624;49.812;8.562;2023-06-10T05:25:26;100328.22;;;17.91;75.96
62333;BME280;48624;49.812;8.562;2023-06-10T05:27:52;100330.44;;;17.96;76.49
62333;BME280;48624;49.812;8.562;2023-06-10T05:30:18;100322.03;;;18.09;75.74
62333;BME280;48624;49.812;8.562;2023-06-10T05:32:44;100331.34;;;18.23;74.98
62333;BME280;48624;49.812;8.562;2023-06-10T05:35:09;100324.50;;;18.28;75.91
62333;BME280;48624;49.812;8.562;2023-06-10T05:37:34;100327.72;;;18.32;75.40
62333;BME280;48624;49.812;8.562;2023-06-10T05:40:02;100330.47;;;18.49;74.36
62333;BME280;48624;49.812;8.562;2023-06-10T05:42:27;100335.88;;;18.57;74.15
62333;BME280;48624;49.812;8.562;2023-06-10T05:44:56;100330.56;;;18.65;74.01
62333;BME280;48624;49.812;8.562;2023-06-10T05:47:21;100338.19;;;18.86;72.77
62333;BME280;48624;49.812;8.562;2023-06-10T05:49:46;100332.53;;;18.98;72.28
62333;BME280;48624;49.812;8.562;2023-06-10T05:52:13;100335.84;;;18.83;72.86
62333;BME280;48624;49.812;8.562;2023-06-10T05:54:38;100337.31;;;19.12;72.22
62333;BME280;48624;49.812;8.562;2023-06-10T05:57:04;100338.22;;;19.38;69.86
62333;BME280;48624;49.812;8.562;2023-06-10T05:59:30;100337.88;;;19.49;69.64
62333;BME280;48624;49.812;8.562;2023-06-10T06:01:56;100332.69;;;19.64;66.90
62333;BME280;48624;49.812;8.562;2023-06-10T06:04:21;100329.03;;;19.99;65.00
62333;BME280;48624;49.812;8.562;2023-06-10T06:06:46;100332.69;;;20.22;64.42
62333;BME280;48624;49.812;8.562;2023-06-10T06:09:11;100331.66;;;20.40;63.46
62333;BME280;48624;49.812;8.562;2023-06-10T06:11:37;100331.81;;;20.47;63.47
62333;BME280;48624;49.812;8.562;2023-06-10T06:14:03;100333.13;;;20.59;62.50
62333;BME280;48624;49.812;8.562;2023-06-10T06:16:28;100330.25;;;20.52;62.58
62333;BME280;48624;49.812;8.562;2023-06-10T06:18:53;100340.59;;;20.89;61.00
62333;BME280;48624;49.812;8.562;2023-06-10T06:21:19;100335.75;;;20.76;62.17
62333;BME280;48624;49.812;8.562;2023-06-10T06:23:44;100326.34;;;20.72;62.35
62333;BME280;48624;49.812;8.562;2023-06-10T06:26:09;100335.34;;;20.96;60.95
62333;BME280;48624;49.812;8.562;2023-06-10T06:28:35;100340.59;;;20.89;60.91
62333;BME280;48624;49.812;8.562;2023-06-10T06:31:00;100332.31;;;20.99;61.14
62333;BME280;48624;49.812;8.562;2023-06-10T06:33:25;100341.63;;;20.88;61.50
62333;BME280;48624;49.812;8.562;2023-06-10T06:35:51;100334.78;;;21.09;60.03
62333;BME280;48624;49.812;8.562;2023-06-10T06:38:16;100332.50;;;21.29;60.70
62333;BME280;48624;49.812;8.562;2023-06-10T06:40:42;100337.38;;;20.93;62.92
62333;BME280;48624;49.812;8.562;2023-06-10T06:43:07;100334.69;;;21.25;60.58
62333;BME280;48624;49.812;8.562;2023-06-10T06:45:32;100327.34;;;21.42;60.10
62333;BME280;48624;49.812;8.562;2023-06-10T06:47:59;100329.63;;;21.54;60.05
62333;BME280;48624;49.812;8.562;2023-06-10T06:50:24;100336.91;;;21.76;58.79
62333;BME280;48624;49.812;8.562;2023-06-10T06:52:50;100339.94;;;21.97;58.61
62333;BME280;48624;49.812;8.562;2023-06-10T06:55:15;100337.81;;;22.07;58.53
62333;BME280;48624;49.812;8.562;2023-06-10T06:57:40;100337.75;;;22.30;56.28
62333;BME280;48624;49.812;8.562;2023-06-10T07:00:06;100331.69;;;22.28;56.58
62333;BME280;48624;49.812;8.562;2023-06-10T07:02:33;100334.50;;;22.35;57.18
62333;BME280;48624;49.812;8.562;2023-06-10T07:04:58;100340.03;;;22.57;56.35
62333;BME280;48624;49.812;8.562;2023-06-10T07:07:24;100343.16;;;22.45;55.91
62333;BME280;48624;49.812;8.562;2023-06-10T07:09:49;100338.63;;;22.61;55.65
62333;BME280;48624;49.812;8.562;2023-06-10T07:12:14;100337.72;;;22.69;56.47
62333;BME280;48624;49.812;8.562;2023-06-10T07:14:40;100347.06;;;23.03;53.85
62333;BME280;48624;49.812;8.562;2023-06-10T07:17:05;100345.03;;;23.05;54.41
62333;BME280;48624;49.812;8.562;2023-06-10T07:19:30;100345.66;;;23.07;53.39
62333;BME280;48624;49.812;8.562;2023-06-10T07:21:56;100346.59;;;23.51;52.43
62333;BME280;48624;49.812;8.562;2023-06-10T07:24:21;100350.56;;;23.55;51.44
62333;BME280;48624;49.812;8.562;2023-06-10T07:26:46;100346.47;;;23.60;52.43
62333;BME280;48624;49.812;8.562;2023-06-10T07:29:11;100350.25;;;23.65;52.04
62333;BME280;48624;49.812;8.562;2023-06-10T07:31:37;100352.81;;;23.95;50.46
62333;BME280;48624;49.812;8.562;2023-06-10T07:34:03;100361.44;;;24.06;50.17
62333;BME280;48624;49.812;8.562;2023-06-10T07:36:28;100352.56;;;23.90;50.99
62333;BME280;48624;49.812;8.562;2023-06-10T07:38:55;100353.84;;;23.94;51.03
62333;BME280;48624;49.812;8.562;2023-06-10T07:41:22;100358.88;;;24.19;49.43
62333;BME280;48624;49.812;8.562;2023-06-10T07:43:47;100345.91;;;24.50;49.25
62333;BME280;48624;49.812;8.562;2023-06-10T07:46:12;100349.69;;;24.56;50.31
62333;BME280;48624;49.812;8.562;2023-06-10T07:48:38;100347.53;;;24.73;48.90
62333;BME280;48624;49.812;8.562;2023-06-10T07:51:03;100344.81;;;24.73;49.75
62333;BME280;48624;49.812;8.562;2023-06-10T07:53:28;100342.09;;;24.73;47.63
62333;BME280;48624;49.812;8.562;2023-06-10T07:55:54;100342.22;;;24.93;47.84
62333;BME280;48624;49.812;8.562;2023-06-10T07:58:19;100346.69;;;25.28;47.21
62333;BME280;48624;49.812;8.562;2023-06-10T08:00:46;100344.31;;;25.67;45.91
62333;BME280;48624;49.812;8.562;2023-06-10T08:03:11;100348.13;;;25.17;46.85
62333;BME280;48624;49.812;8.562;2023-06-10T08:05:36;100344.69;;;25.50;45.14
62333;BME280;48624;49.812;8.562;2023-06-10T08:08:02;100341.97;;;25.50;45.44
62333;BME280;48624;49.812;8.562;2023-06-10T08:10:27;100349.53;;;25.61;45.03
62333;BME280;48624;49.812;8.562;2023-06-10T08:12:52;100351.63;;;26.00;44.69
62333;BME280;48624;49.812;8.562;2023-06-10T08:15:18;100353.28;;;25.74;45.79
62333;BME280;48624;49.812;8.562;2023-06-10T08:20:11;100356.44;;;25.71;46.48
62333;BME280;48624;49.812;8.562;2023-06-10T08:22:36;100351.19;;;25.83;44.99
62333;BME280;48624;49.812;8.562;2023-06-10T08:25:01;100343.91;;;25.90;45.64
62333;BME280;48624;49.812;8.562;2023-06-10T08:27:27;100347.44;;;26.11;44.80
62333;BME280;48624;49.812;8.562;2023-06-10T08:29:52;100347.63;;;26.50;43.38
62333;BME280;48624;49.812;8.562;2023-06-10T08:32:17;100343.66;;;26.39;43.76
62333;BME280;48624;49.812;8.562;2023-06-10T08:34:43;100349.00;;;26.72;42.98
62333;BME280;48624;49.812;8.562;2023-06-10T08:37:08;100356.50;;;26.77;42.83
62333;BME280;48624;49.812;8.562;2023-06-10T08:39:33;100351.03;;;26.97;41.95
62333;BME280;48624;49.812;8.562;2023-06-10T08:44:42;100351.88;;;27.37;40.36
62333;BME280;48624;49.812;8.562;2023-06-10T08:47:16;100342.31;;;27.27;41.15
62333;BME280;48624;49.812;8.562;2023-06-10T08:49:46;100340.16;;;27.36;40.87
62333;BME280;48624;49.812;8.562;2023-06-10T08:52:16;100344.84;;;27.61;39.87
62333;BME280;48624;49.812;8.562;2023-06-10T08:55:03;100344.84;;;27.61;39.29
62333;BME280;48624;49.812;8.562;2023-06-10T08:57:29;100341.38;;;27.79;38.39
62333;BME280;48624;49.812;8.562;2023-06-10T08:59:57;100344.28;;;28.03;38.37
62333;BME280;48624;49.812;8.562;2023-06-10T09:02:24;100348.75;;;28.23;38.04
62333;BME280;48624;49.812;8.562;2023-06-10T09:04:50;100337.06;;;27.65;38.30
62333;BME280;48624;49.812;8.562;2023-06-10T09:07:16;100333.59;;;28.08;38.41
62333;BME280;48624;49.812;8.562;2023-06-10T09:09:43;100333.69;;;28.20;38.25
62333;BME280;48624;49.812;8.562;2023-06-10T09:12:10;100331.59;;;28.16;38.50
62333;BME280;48624;49.812;8.562;2023-06-10T09:14:36;100329.16;;;28.07;38.45
62333;BME280;48624;49.812;8.562;2023-06-10T09:17:02;100327.69;;;28.11;38.28
62333;BME280;48624;49.812;8.562;2023-06-10T09:19:28;100334.53;;;28.21;38.29
62333;BME280;48624;49.812;8.562;2023-06-10T09:21:53;100330.97;;;28.39;37.80
62333;BME280;48624;49.812;8.562;2023-06-10T09:24:22;100320.69;;;28.60;37.41
62333;BME280;48624;49.812;8.562;2023-06-10T09:26:47;100334.00;;;28.31;37.71
62333;BME280;48624;49.812;8.562;2023-06-10T09:29:12;100323.78;;;28.63;37.33
62333;BME280;48624;49.812;8.562;2023-06-10T09:31:38;100324.56;;;28.89;36.36
62333;BME280;48624;49.812;8.562;2023-06-10T09:34:14;100314.88;;;28.37;37.97
62333;BME280;48624;49.812;8.562;2023-06-10T09:36:40;100313.28;;;28.86;37.15
62333;BME280;48624;49.812;8.562;2023-06-10T09:39:17;100311.22;;;28.44;37.93
62333;BME280;48624;49.812;8.562;2023-06-10T09:41:45;100301.59;;;28.60;37.84
62333;BME280;48624;49.812;8.562;2023-06-10T09:44:19;100316.00;;;28.67;36.99
62333;BME280;48624;49.812;8.562;2023-06-10T09:46:49;100302.13;;;29.06;35.99
62333;BME280;48624;49.812;8.562;2023-06-10T09:49:16;100305.59;;;29.25;36.41
62333;BME280;48624;49.812;8.562;2023-06-10T09:51:49;100299.56;;;29.23;35.39
62333;BME280;48624;49.812;8.562;2023-06-10T09:54:16;100296.94;;;29.47;35.18
62333;BME280;48624;49.812;8.562;2023-06-10T09:56:41;100307.13;;;29.52;35.35
62333;BME280;48624;49.812;8.562;2023-06-10T09:59:07;100300.06;;;29.44;35.59
62333;BME280;48624;49.812;8.562;2023-06-10T10:01:34;100298.88;;;29.40;36.24
62333;BME280;48624;49.812;8.562;2023-06-10T10:03:59;100296.81;;;29.23;36.10
62333;BME280;48624;49.812;8.562;2023-06-10T10:06:26;100292.09;;;29.85;35.37
62333;BME280;48624;49.812;8.562;2023-06-10T10:08:51;100298.75;;;29.89;35.52
62333;BME280;48624;49.812;8.562;2023-06-10T10:11:18;100295.50;;;29.68;34.37
62333;BME280;48624;49.812;8.562;2023-06-10T10:13:45;100291.84;;;29.86;33.69
62333;BME280;48624;49.812;8.562;2023-06-10T10:16:16;100301.09;;;29.97;33.33
62333;BME280;48624;49.812;8.562;2023-06-10T10:18:46;100294.19;;;29.47;34.35
62333;BME280;48624;49.812;8.562;2023-06-10T10:21:15;100292.09;;;29.97;34.29
62333;BME280;48624;49.812;8.562;2023-06-10T10:26:21;100299.56;;;30.25;33.80
62333;BME280;48624;49.812;8.562;2023-06-10T10:28:52;100287.97;;;30.06;33.44
62333;BME280;48624;49.812;8.562;2023-06-10T10:31:21;100294.47;;;30.29;33.75
62333;BME280;48624;49.812;8.562;2023-06-10T10:33:58;100288.06;;;30.23;33.55
62333;BME280;48624;49.812;8.562;2023-06-10T10:36:25;100281.63;;;30.41;33.53
62333;BME280;48624;49.812;8.562;2023-06-10T10:38:51;100285.66;;;30.39;33.49
62333;BME280;48624;49.812;8.562;2023-06-10T10:41:18;100281.00;;;30.92;32.70
62333;BME280;48624;49.812;8.562;2023-06-10T10:43:44;100270.41;;;30.96;32.59
62333;BME280;48624;49.812;8.562;2023-06-10T10:46:16;100267.69;;;31.13;32.70
62333;BME280;48624;49.812;8.562;2023-06-10T10:48:42;100274.75;;;30.80;32.50
62333;BME280;48624;49.812;8.562;2023-06-10T10:51:09;100267.22;;;30.87;32.70
62333;BME280;48624;49.812;8.562;2023-06-10T10:53:39;100266.09;;;30.71;32.55
62333;BME280;48624;49.812;8.562;2023-06-10T10:56:08;100260.38;;;31.01;32.13
62333;BME280;48624;49.812;8.562;2023-06-10T10:58:37;100252.16;;;30.31;33.75
62333;BME280;48624;49.812;8.562;2023-06-10T11:01:13;100256.00;;;31.18;32.37
62333;BME280;48624;49.812;8.562;2023-06-10T11:03:46;100254.94;;;31.19;31.34
62333;BME280;48624;49.812;8.562;2023-06-10T11:06:17;100258.38;;;30.97;30.74
62333;BME280;48624;49.812;8.562;2023-06-10T11:13:57;100245.69;;;31.54;29.61
62333;BME280;48624;49.812;8.562;2023-06-10T11:16:25;100246.94;;;31.63;28.39
62333;BME280;48624;49.812;8.562;2023-06-10T11:18:53;100245.09;;;31.69;28.74
62333;BME280;48624;49.812;8.562;2023-06-10T11:21:19;100242.97;;;31.37;27.57
62333;BME280;48624;49.812;8.562;2023-06-10T11:23:45;100252.66;;;31.79;29.16
62333;BME280;48624;49.812;8.562;2023-06-10T11:31:25;100243.28;;;32.59;27.03
62333;BME280;48624;49.812;8.562;2023-06-10T11:36:21;100235.81;;;32.49;26.68
62333;BME280;48624;49.812;8.562;2023-06-10T11:38:46;100234.53;;;33.12;26.39
62333;BME280;48624;49.812;8.562;2023-06-10T11:41:13;100234.25;;;32.86;27.09
62333;BME280;48624;49.812;8.562;2023-06-10T11:43:45;100237.25;;;32.57;27.50
62333;BME280;48624;49.812;8.562;2023-06-10T11:46:12;100229.34;;;32.60;26.70
62333;BME280;48624;49.812;8.562;2023-06-10T11:48:37;100228.81;;;32.63;27.47
62333;BME280;48624;49.812;8.562;2023-06-10T11:51:08;100232.47;;;32.97;27.01
62333;BME280;48624;49.812;8.562;2023-06-10T11:53:34;100236.47;;;32.61;26.47
62333;BME280;48624;49.812;8.562;2023-06-10T11:56:00;100229.22;;;32.77;26.59
62333;BME280;48624;49.812;8.562;2023-06-10T11:58:25;100228.91;;;32.74;27.36
62333;BME280;48624;49.812;8.562;2023-06-10T12:00:55;100223.03;;;32.87;26.30
62333;BME280;48624;49.812;8.562;2023-06-10T12:03:24;100229.25;;;32.10;26.78
62333;BME280;48624;49.812;8.562;2023-06-10T12:05:59;100235.75;;;32.04;27.48
62333;BME280;48624;49.812;8.562;2023-06-10T12:08:26;100222.50;;;31.96;28.32
62333;BME280;48624;49.812;8.562;2023-06-10T12:10:52;100220.59;;;32.19;27.86
62333;BME280;48624;49.812;8.562;2023-06-10T12:13:18;100212.19;;;32.48;27.86
62333;BME280;48624;49.812;8.562;2023-06-10T12:15:44;100215.22;;;32.74;26.83
62333;BME280;48624;49.812;8.562;2023-06-10T12:18:19;100220.28;;;33.15;26.45
62333;BME280;48624;49.812;8.562;2023-06-10T12:20:45;100214.69;;;33.37;25.76
62333;BME280;48624;49.812;8.562;2023-06-10T12:23:11;100221.09;;;33.48;25.06
62333;BME280;48624;49.812;8.562;2023-06-10T12:25:37;100197.75;;;32.85;26.41
62333;BME280;48624;49.812;8.562;2023-06-10T12:28:03;100208.88;;;33.66;25.35
62333;BME280;48624;49.812;8.562;2023-06-10T12:30:29;100206.94;;;33.29;25.84
62333;BME280;48624;49.812;8.562;2023-06-10T12:32:55;100215.22;;;33.72;25.65
62333;BME280;48624;49.812;8.562;2023-06-10T12:35:26;100211.03;;;34.07;25.63
62333;BME280;48624;49.812;8.562;2023-06-10T12:38:01;100213.59;;;34.35;24.93
62333;BME280;48624;49.812;8.562;2023-06-10T12:40:34;100207.41;;;33.53;25.43
62333;BME280;48624;49.812;8.562;2023-06-10T12:43:01;100200.84;;;34.02;25.07
62333;BME280;48624;49.812;8.562;2023-06-10T12:45:31;100207.25;;;34.24;25.72
62333;BME280;48624;49.812;8.562;2023-06-10T12:48:20;100210.44;;;34.00;26.13
62333;BME280;48624;49.812;8.562;2023-06-10T12:50:51;100201.19;;;34.16;24.32
62333;BME280;48624;49.812;8.562;2023-06-10T12:53:17;100210.59;;;34.36;24.39
62333;BME280;48624;49.812;8.562;2023-06-10T12:55:43;100204.94;;;34.79;24.43
62333;BME280;48624;49.812;8.562;2023-06-10T12:58:10;100199.19;;;34.91;24.21
62333;BME280;48624;49.812;8.562;2023-06-10T13:00:35;100195.56;;;35.42;24.01
62333;BME280;48624;49.812;8.562;2023-06-10T13:03:01;100193.97;;;35.21;24.79
62333;BME280;48624;49.812;8.562;2023-06-10T13:05:27;100197.78;;;34.83;24.82
62333;BME280;48624;49.812;8.562;2023-06-10T13:07:52;100198.06;;;34.77;24.85
62333;BME280;48624;49.812;8.562;2023-06-10T13:10:18;100200.53;;;35.04;24.18
62333;BME280;48624;49.812;8.562;2023-06-10T13:12:44;100190.66;;;35.29;24.44